sensor_id;sensor_type;location;lat;lon;timestamp;temperature;humidity
24164;DHT22;12319;49.204;8.116;2022-10-17T00:01:39;15.40;99.90
24164;DHT22;12319;49.204;8.116;2022-10-17T00:04:04;15.30;99.90
24164;DHT22;12319;49.204;8.116;2022-10-17T00:06:30;15.30;99.90
24164;DHT22;12319;49.204;8.116;2022-10-17T00:08:55;15.30;99.90
24164;DHT22;12319;49.204;8.116;2022-10-17T00:11:22;15.20;99.90
24164;DHT22;12319;49.204;8.116;2022-10-17T00:13:50;15.20;99.90
24164;DHT22;12319;49.204;8.116;2022-10-17T00:16:26;15.20;99.90
24164;DHT22;12319;49.204;8.116;2022-10-17T00:18:53;15.20;99.90
24164;DHT22;12319;49.204;8.116;2022-10-17T00:21:19;15.20;99.90
24164;DHT22;12319;49.204;8.116;2022-10-17T00:23:46;15.20;99.90
24164;DHT22;12319;49.204;8.116;2022-10-17T00:26:11;15.20;99.90
24164;DHT22;12319;49.204;8.116;2022-10-17T00:28:37;15.10;99.90
24164;DHT22;12319;49.204;8.116;2022-10-17T00:31:05;15.10;99.90
24164;DHT22;12319;49.204;8.116;2022-10-17T00:33:32;15.10;99.90
24164;DHT22;12319;49.204;8.116;2022-10-17T00:36:03;15.10;99.90
24164;DHT22;12319;49.204;8.116;2022-10-17T00:38:29;15.10;99.90
24164;DHT22;12319;49.204;8.116;2022-10-17T00:40:54;15.10;99.90
24164;DHT22;12319;49.204;8.116;2022-10-17T00:43:20;15.10;99.90
24164;DHT22;12319;49.204;8.116;2022-10-17T00:45:45;15.10;99.90
24164;DHT22;12319;49.204;8.116;2022-10-17T00:48:11;15.10;99.90
24164;DHT22;12319;49.204;8.116;2022-10-17T00:50:40;15.00;99.90
24164;DHT22;12319;49.204;8.116;2022-10-17T00:53:07;15.00;99.90
24164;DHT22;12319;49.204;8.116;2022-10-17T00:55:37;15.00;99.90
24164;DHT22;12319;49.204;8.116;2022-10-17T00:58:04;14.90;99.90
24164;DHT22;12319;49.204;8.116;2022-10-17T01:00:30;14.90;99.90
24164;DHT22;12319;49.204;8.116;2022-10-17T01:02:56;14.90;99.90
24164;DHT22;12319;49.204;8.116;2022-10-17T01:05:22;14.90;99.90
24164;DHT22;12319;49.204;8.116;2022-10-17T01:07:49;14.90;99.90
24164;DHT22;12319;49.204;8.116;2022-10-17T01:10:16;14.80;99.90
24164;DHT22;12319;49.204;8.116;2022-10-17T01:12:54;14.80;99.90
24164;DHT22;12319;49.204;8.116;2022-10-17T01:15:40;14.80;99.90
24164;DHT22;12319;49.204;8.116;2022-10-17T01:26:18;14.80;99.90
24164;DHT22;12319;49.204;8.116;2022-10-17T01:29:12;14.80;99.90
24164;DHT22;12319;49.204;8.116;2022-10-17T01:34:27;14.70;99.90
24164;DHT22;12319;49.204;8.116;2022-10-17T01:37:27;14.70;99.90
24164;DHT22;12319;49.204;8.116;2022-10-17T01:40:06;14.60;99.90
24164;DHT22;12319;49.204;8.116;2022-10-17T01:45:30;14.60;99.90
24164;DHT22;12319;49.204;8.116;2022-10-17T01:47:58;14.50;99.90
24164;DHT22;12319;49.204;8.116;2022-10-17T01:50:31;14.50;99.90
24164;DHT22;12319;49.204;8.116;2022-10-17T01:53:02;14.50;99.90
24164;DHT22;12319;49.204;8.116;2022-10-17T01:55:35;14.50;99.90
24164;DHT22;12319;49.204;8.116;2022-10-17T02:00:34;14.50;99.90
24164;DHT22;12319;49.204;8.116;2022-10-17T02:03:04;14.50;99.90
24164;DHT22;12319;49.204;8.116;2022-10-17T02:05:35;14.50;99.90
24164;DHT22;12319;49.204;8.116;2022-10-17T02:08:02;14.40;99.90
24164;DHT22;12319;49.204;8.116;2022-10-17T02:10:52;14.40;99.90
24164;DHT22;12319;49.204;8.116;2022-10-17T02:24:29;14.30;99.90
24164;DHT22;12319;49.204;8.116;2022-10-17T02:27:04;14.30;99.90
24164;DHT22;12319;49.204;8.116;2022-10-17T02:29:35;14.30;99.90
24164;DHT22;12319;49.204;8.116;2022-10-17T02:32:06;14.30;99.90
24164;DHT22;12319;49.204;8.116;2022-10-17T02:34:37;14.20;99.90
24164;DHT22;12319;49.204;8.116;2022-10-17T02:37:08;14.20;99.90
24164;DHT22;12319;49.204;8.116;2022-10-17T02:39:35;14.20;99.90
24164;DHT22;12319;49.204;8.116;2022-10-17T02:42:03;14.20;99.90
24164;DHT22;12319;49.204;8.116;2022-10-17T02:44:30;14.20;99.90
24164;DHT22;12319;49.204;8.116;2022-10-17T02:47:11;14.20;99.90
24164;DHT22;12319;49.204;8.116;2022-10-17T02:49:44;14.20;99.90
24164;DHT22;12319;49.204;8.116;2022-10-17T02:52:27;14.30;99.90
24164;DHT22;12319;49.204;8.116;2022-10-17T02:54:59;14.20;99.90
24164;DHT22;12319;49.204;8.116;2022-10-17T02:57:37;14.20;99.90
24164;DHT22;12319;49.204;8.116;2022-10-17T03:00:05;14.20;99.90
24164;DHT22;12319;49.204;8.116;2022-10-17T03:02:49;14.20;99.90
24164;DHT22;12319;49.204;8.116;2022-10-17T03:05:24;14.20;99.90
24164;DHT22;12319;49.204;8.116;2022-10-17T03:07:50;14.20;99.90
24164;DHT22;12319;49.204;8.116;2022-10-17T03:10:15;14.10;99.90
24164;DHT22;12319;49.204;8.116;2022-10-17T03:12:41;14.20;99.90
24164;DHT22;12319;49.204;8.116;2022-10-17T03:15:07;14.10;99.90
24164;DHT22;12319;49.204;8.116;2022-10-17T03:17:33;14.10;99.90
24164;DHT22;12319;49.204;8.116;2022-10-17T03:19:59;14.10;99.90
24164;DHT22;12319;49.204;8.116;2022-10-17T03:22:25;14.10;99.90
24164;DHT22;12319;49.204;8.116;2022-10-17T03:24:50;14.00;99.90
24164;DHT22;12319;49.204;8.116;2022-10-17T03:27:16;14.10;99.90
24164;DHT22;12319;49.204;8.116;2022-10-17T03:29:41;14.00;99.90
24164;DHT22;12319;49.204;8.116;2022-10-17T03:32:07;14.20;99.90
24164;DHT22;12319;49.204;8.116;2022-10-17T03:34:32;14.00;99.90
24164;DHT22;12319;49.204;8.116;2022-10-17T03:36:58;14.00;99.90
24164;DHT22;12319;49.204;8.116;2022-10-17T03:39:24;14.00;99.90
24164;DHT22;12319;49.204;8.116;2022-10-17T03:41:49;14.00;99.90
24164;DHT22;12319;49.204;8.116;2022-10-17T03:44:15;14.10;99.90
24164;DHT22;12319;49.204;8.116;2022-10-17T03:46:40;14.00;99.90
24164;DHT22;12319;49.204;8.116;2022-10-17T03:49:08;14.00;99.90
24164;DHT22;12319;49.204;8.116;2022-10-17T03:51:33;14.10;99.90
24164;DHT22;12319;49.204;8.116;2022-10-17T03:53:59;14.00;99.90
24164;DHT22;12319;49.204;8.116;2022-10-17T03:56:25;14.00;99.90
24164;DHT22;12319;49.204;8.116;2022-10-17T03:58:51;14.00;99.90
24164;DHT22;12319;49.204;8.116;2022-10-17T04:01:17;14.00;99.90
24164;DHT22;12319;49.204;8.116;2022-10-17T04:03:48;14.00;99.90
24164;DHT22;12319;49.204;8.116;2022-10-17T04:06:13;14.00;99.90
24164;DHT22;12319;49.204;8.116;2022-10-17T04:08:39;14.00;99.90
24164;DHT22;12319;49.204;8.116;2022-10-17T04:11:06;13.90;99.90
24164;DHT22;12319;49.204;8.116;2022-10-17T04:13:33;13.90;99.90
24164;DHT22;12319;49.204;8.116;2022-10-17T04:16:11;13.90;99.90
24164;DHT22;12319;49.204;8.116;2022-10-17T04:18:37;13.90;99.90
24164;DHT22;12319;49.204;8.116;2022-10-17T04:21:04;13.90;99.90
24164;DHT22;12319;49.204;8.116;2022-10-17T04:23:30;13.90;99.90
24164;DHT22;12319;49.204;8.116;2022-10-17T04:25:59;13.90;99.90
24164;DHT22;12319;49.204;8.116;2022-10-17T04:28:26;13.90;99.90
24164;DHT22;12319;49.204;8.116;2022-10-17T04:31:18;13.90;99.90
24164;DHT22;12319;49.204;8.116;2022-10-17T04:33:46;13.90;99.90
24164;DHT22;12319;49.204;8.116;2022-10-17T04:36:14;13.90;99.90
24164;DHT22;12319;49.204;8.116;2022-10-17T04:38:40;13.80;99.90
24164;DHT22;12319;49.204;8.116;2022-10-17T04:41:09;13.80;99.90
24164;DHT22;12319;49.204;8.116;2022-10-17T04:43:36;13.80;99.90
24164;DHT22;12319;49.204;8.116;2022-10-17T04:46:06;13.80;99.90
24164;DHT22;12319;49.204;8.116;2022-10-17T04:48:32;13.80;99.90
24164;DHT22;12319;49.204;8.116;2022-10-17T04:51:03;13.70;99.90
24164;DHT22;12319;49.204;8.116;2022-10-17T04:53:31;13.70;99.90
24164;DHT22;12319;49.204;8.116;2022-10-17T04:55:58;13.70;99.90
24164;DHT22;12319;49.204;8.116;2022-10-17T04:58:30;13.70;99.90
24164;DHT22;12319;49.204;8.116;2022-10-17T05:00:55;13.70;99.90
24164;DHT22;12319;49.204;8.116;2022-10-17T05:03:21;13.60;99.90
24164;DHT22;12319;49.204;8.116;2022-10-17T05:05:46;13.60;99.90
24164;DHT22;12319;49.204;8.116;2022-10-17T05:08:12;13.60;99.90
24164;DHT22;12319;49.204;8.116;2022-10-17T05:10:44;13.60;99.90
24164;DHT22;12319;49.204;8.116;2022-10-17T05:13:13;13.60;99.90
24164;DHT22;12319;49.204;8.116;2022-10-17T05:15:38;13.50;99.90
24164;DHT22;12319;49.204;8.116;2022-10-17T05:18:05;13.50;99.90
24164;DHT22;12319;49.204;8.116;2022-10-17T05:20:31;13.50;99.90
24164;DHT22;12319;49.204;8.116;2022-10-17T05:23:00;13.50;99.90
24164;DHT22;12319;49.204;8.116;2022-10-17T05:25:25;13.50;99.90
24164;DHT22;12319;49.204;8.116;2022-10-17T05:27:52;13.40;99.90
24164;DHT22;12319;49.204;8.116;2022-10-17T05:30:18;13.40;99.90
24164;DHT22;12319;49.204;8.116;2022-10-17T05:32:43;13.40;99.90
24164;DHT22;12319;49.204;8.116;2022-10-17T05:35:09;13.40;99.90
24164;DHT22;12319;49.204;8.116;2022-10-17T05:37:35;13.40;99.90
24164;DHT22;12319;49.204;8.116;2022-10-17T05:40:00;13.50;99.90
24164;DHT22;12319;49.204;8.116;2022-10-17T05:42:26;13.30;99.90
24164;DHT22;12319;49.204;8.116;2022-10-17T05:44:51;13.40;99.90
24164;DHT22;12319;49.204;8.116;2022-10-17T05:47:17;13.30;99.90
24164;DHT22;12319;49.204;8.116;2022-10-17T05:49:46;13.30;99.90
24164;DHT22;12319;49.204;8.116;2022-10-17T05:52:16;13.30;99.90
24164;DHT22;12319;49.204;8.116;2022-10-17T05:54:42;13.30;99.90
24164;DHT22;12319;49.204;8.116;2022-10-17T05:57:09;13.30;99.90
24164;DHT22;12319;49.204;8.116;2022-10-17T05:59:36;13.30;99.90
24164;DHT22;12319;49.204;8.116;2022-10-17T06:02:10;13.30;99.90
24164;DHT22;12319;49.204;8.116;2022-10-17T06:04:43;13.30;99.90
24164;DHT22;12319;49.204;8.116;2022-10-17T06:07:11;13.30;99.90
24164;DHT22;12319;49.204;8.116;2022-10-17T06:09:47;13.40;99.90
24164;DHT22;12319;49.204;8.116;2022-10-17T06:12:13;13.30;99.90
24164;DHT22;12319;49.204;8.116;2022-10-17T06:14:43;13.40;99.90
24164;DHT22;12319;49.204;8.116;2022-10-17T06:17:09;13.40;99.90
24164;DHT22;12319;49.204;8.116;2022-10-17T06:19:35;13.40;99.90
24164;DHT22;12319;49.204;8.116;2022-10-17T06:22:02;13.40;99.90
24164;DHT22;12319;49.204;8.116;2022-10-17T06:24:28;13.50;99.90
24164;DHT22;12319;49.204;8.116;2022-10-17T06:27:06;13.50;99.90
24164;DHT22;12319;49.204;8.116;2022-10-17T06:29:31;13.50;99.90
24164;DHT22;12319;49.204;8.116;2022-10-17T06:31:57;13.60;99.90
24164;DHT22;12319;49.204;8.116;2022-10-17T06:34:28;13.50;99.90
24164;DHT22;12319;49.204;8.116;2022-10-17T06:37:07;13.60;99.90
24164;DHT22;12319;49.204;8.116;2022-10-17T06:39:38;13.70;99.90
24164;DHT22;12319;49.204;8.116;2022-10-17T06:42:25;13.80;99.90
24164;DHT22;12319;49.204;8.116;2022-10-17T06:44:58;13.80;99.90
24164;DHT22;12319;49.204;8.116;2022-10-17T06:47:42;13.90;99.90
24164;DHT22;12319;49.204;8.116;2022-10-17T06:50:08;13.90;99.90
24164;DHT22;12319;49.204;8.116;2022-10-17T06:52:33;14.00;99.90
24164;DHT22;12319;49.204;8.116;2022-10-17T06:54:59;14.00;99.90
24164;DHT22;12319;49.204;8.116;2022-10-17T06:57:25;14.00;99.90
24164;DHT22;12319;49.204;8.116;2022-10-17T06:59:50;14.00;99.90
24164;DHT22;12319;49.204;8.116;2022-10-17T07:02:16;14.10;99.90
24164;DHT22;12319;49.204;8.116;2022-10-17T07:04:41;14.20;99.90
24164;DHT22;12319;49.204;8.116;2022-10-17T07:07:07;14.20;99.90
24164;DHT22;12319;49.204;8.116;2022-10-17T07:09:46;14.30;99.90
24164;DHT22;12319;49.204;8.116;2022-10-17T07:12:33;14.40;99.90
24164;DHT22;12319;49.204;8.116;2022-10-17T07:15:08;14.50;99.90
24164;DHT22;12319;49.204;8.116;2022-10-17T07:17:47;14.60;99.90
24164;DHT22;12319;49.204;8.116;2022-10-17T07:20:18;14.80;99.90
24164;DHT22;12319;49.204;8.116;2022-10-17T07:22:49;14.90;99.90
24164;DHT22;12319;49.204;8.116;2022-10-17T07:25:14;15.10;99.90
24164;DHT22;12319;49.204;8.116;2022-10-17T07:27:40;15.10;99.90
24164;DHT22;12319;49.204;8.116;2022-10-17T07:30:06;15.20;99.90
24164;DHT22;12319;49.204;8.116;2022-10-17T07:32:32;15.30;99.90
24164;DHT22;12319;49.204;8.116;2022-10-17T07:34:58;15.40;99.90
24164;DHT22;12319;49.204;8.116;2022-10-17T07:37:23;15.60;99.90
24164;DHT22;12319;49.204;8.116;2022-10-17T07:39:49;15.90;99.90
24164;DHT22;12319;49.204;8.116;2022-10-17T07:42:14;16.00;99.90
24164;DHT22;12319;49.204;8.116;2022-10-17T07:44:40;16.20;99.90
24164;DHT22;12319;49.204;8.116;2022-10-17T07:47:06;16.60;99.90
24164;DHT22;12319;49.204;8.116;2022-10-17T07:49:31;16.50;99.90
24164;DHT22;12319;49.204;8.116;2022-10-17T07:51:57;16.80;99.90
24164;DHT22;12319;49.204;8.116;2022-10-17T07:54:22;17.00;99.90
24164;DHT22;12319;49.204;8.116;2022-10-17T07:56:48;17.50;99.90
24164;DHT22;12319;49.204;8.116;2022-10-17T07:59:18;18.60;99.90
24164;DHT22;12319;49.204;8.116;2022-10-17T08:01:44;20.00;99.90
24164;DHT22;12319;49.204;8.116;2022-10-17T08:04:09;21.60;99.90
24164;DHT22;12319;49.204;8.116;2022-10-17T08:06:35;22.70;99.90
24164;DHT22;12319;49.204;8.116;2022-10-17T08:09:01;24.00;99.90
24164;DHT22;12319;49.204;8.116;2022-10-17T08:11:27;25.30;99.50
24164;DHT22;12319;49.204;8.116;2022-10-17T08:13:52;26.20;97.10
24164;DHT22;12319;49.204;8.116;2022-10-17T08:16:18;27.00;95.30
24164;DHT22;12319;49.204;8.116;2022-10-17T08:18:43;27.60;92.60
24164;DHT22;12319;49.204;8.116;2022-10-17T08:21:10;28.10;91.30
24164;DHT22;12319;49.204;8.116;2022-10-17T08:23:36;28.60;88.80
24164;DHT22;12319;49.204;8.116;2022-10-17T08:26:03;29.10;85.50
24164;DHT22;12319;49.204;8.116;2022-10-17T08:28:29;29.30;84.30
24164;DHT22;12319;49.204;8.116;2022-10-17T08:31:21;29.40;83.40
24164;DHT22;12319;49.204;8.116;2022-10-17T08:33:48;29.80;72.40
24164;DHT22;12319;49.204;8.116;2022-10-17T08:36:15;30.20;80.30
24164;DHT22;12319;49.204;8.116;2022-10-17T08:38:42;30.50;78.60
24164;DHT22;12319;49.204;8.116;2022-10-17T08:41:36;30.90;77.10
24164;DHT22;12319;49.204;8.116;2022-10-17T08:46:53;31.50;71.60
24164;DHT22;12319;49.204;8.116;2022-10-17T08:51:53;32.30;68.10
24164;DHT22;12319;49.204;8.116;2022-10-17T08:54:45;32.50;68.20
24164;DHT22;12319;49.204;8.116;2022-10-17T08:57:15;32.70;66.30
24164;DHT22;12319;49.204;8.116;2022-10-17T08:59:42;32.70;65.40
24164;DHT22;12319;49.204;8.116;2022-10-17T09:02:36;32.70;66.00
24164;DHT22;12319;49.204;8.116;2022-10-17T09:20:43;33.10;59.20
24164;DHT22;12319;49.204;8.116;2022-10-17T09:23:21;33.10;58.50
24164;DHT22;12319;49.204;8.116;2022-10-17T09:25:51;33.10;56.40
24164;DHT22;12319;49.204;8.116;2022-10-17T09:28:25;33.00;57.50
24164;DHT22;12319;49.204;8.116;2022-10-17T09:33:32;33.10;54.70
24164;DHT22;12319;49.204;8.116;2022-10-17T09:35:59;33.10;55.50
24164;DHT22;12319;49.204;8.116;2022-10-17T09:38:37;33.10;55.10
24164;DHT22;12319;49.204;8.116;2022-10-17T09:41:06;32.80;52.60
24164;DHT22;12319;49.204;8.116;2022-10-17T09:43:38;32.20;53.20
24164;DHT22;12319;49.204;8.116;2022-10-17T09:46:07;31.30;54.10
24164;DHT22;12319;49.204;8.116;2022-10-17T09:48:40;30.50;54.40
24164;DHT22;12319;49.204;8.116;2022-10-17T09:51:08;29.60;55.20
24164;DHT22;12319;49.204;8.116;2022-10-17T09:53:39;28.80;55.80
24164;DHT22;12319;49.204;8.116;2022-10-17T09:56:12;28.10;56.40
24164;DHT22;12319;49.204;8.116;2022-10-17T09:58:44;27.50;57.60
24164;DHT22;12319;49.204;8.116;2022-10-17T10:01:30;27.00;58.20
24164;DHT22;12319;49.204;8.116;2022-10-17T10:04:16;26.50;59.00
24164;DHT22;12319;49.204;8.116;2022-10-17T10:07:03;26.10;59.10
24164;DHT22;12319;49.204;8.116;2022-10-17T10:09:30;25.80;60.40
24164;DHT22;12319;49.204;8.116;2022-10-17T10:11:58;25.50;61.20
24164;DHT22;12319;49.204;8.116;2022-10-17T10:14:28;25.30;61.90
24164;DHT22;12319;49.204;8.116;2022-10-17T10:16:54;25.20;62.40
24164;DHT22;12319;49.204;8.116;2022-10-17T10:19:41;25.00;62.70
24164;DHT22;12319;49.204;8.116;2022-10-17T10:22:18;24.90;62.90
24164;DHT22;12319;49.204;8.116;2022-10-17T10:24:44;24.80;63.20
24164;DHT22;12319;49.204;8.116;2022-10-17T10:27:26;24.70;63.80
24164;DHT22;12319;49.204;8.116;2022-10-17T10:29:53;24.50;64.10
24164;DHT22;12319;49.204;8.116;2022-10-17T10:32:27;24.50;64.30
24164;DHT22;12319;49.204;8.116;2022-10-17T10:35:04;24.50;64.70
24164;DHT22;12319;49.204;8.116;2022-10-17T10:37:37;24.30;64.80
24164;DHT22;12319;49.204;8.116;2022-10-17T10:40:14;24.30;65.20
24164;DHT22;12319;49.204;8.116;2022-10-17T10:42:40;24.20;65.60
24164;DHT22;12319;49.204;8.116;2022-10-17T10:50:39;24.00;66.40
24164;DHT22;12319;49.204;8.116;2022-10-17T10:53:35;23.90;66.70
24164;DHT22;12319;49.204;8.116;2022-10-17T10:56:05;23.90;67.10
24164;DHT22;12319;49.204;8.116;2022-10-17T10:58:58;23.80;67.20
24164;DHT22;12319;49.204;8.116;2022-10-17T11:12:37;24.10;67.60
24164;DHT22;12319;49.204;8.116;2022-10-17T11:21:14;24.10;68.10
24164;DHT22;12319;49.204;8.116;2022-10-17T11:23:52;24.10;68.10
24164;DHT22;12319;49.204;8.116;2022-10-17T11:26:25;24.10;68.40
24164;DHT22;12319;49.204;8.116;2022-10-17T11:29:02;24.10;69.10
24164;DHT22;12319;49.204;8.116;2022-10-17T11:31:35;24.10;68.50
24164;DHT22;12319;49.204;8.116;2022-10-17T11:34:09;24.10;68.50
24164;DHT22;12319;49.204;8.116;2022-10-17T11:36:39;24.20;68.90
24164;DHT22;12319;49.204;8.116;2022-10-17T11:39:13;24.30;69.00
24164;DHT22;12319;49.204;8.116;2022-10-17T11:42:02;24.40;69.00
24164;DHT22;12319;49.204;8.116;2022-10-17T11:44:35;24.60;68.60
24164;DHT22;12319;49.204;8.116;2022-10-17T11:47:22;24.70;68.90
24164;DHT22;12319;49.204;8.116;2022-10-17T11:50:45;24.80;68.10
24164;DHT22;12319;49.204;8.116;2022-10-17T11:52:53;25.00;68.20
24164;DHT22;12319;49.204;8.116;2022-10-17T11:58:12;25.20;67.80
24164;DHT22;12319;49.204;8.116;2022-10-17T12:00:48;25.40;66.60
24164;DHT22;12319;49.204;8.116;2022-10-17T12:12:02;26.20;64.10
24164;DHT22;12319;49.204;8.116;2022-10-17T12:14:45;26.40;63.30
24164;DHT22;12319;49.204;8.116;2022-10-17T12:19:48;26.80;64.10
24164;DHT22;12319;49.204;8.116;2022-10-17T12:22:22;27.00;64.90
24164;DHT22;12319;49.204;8.116;2022-10-17T12:24:57;27.10;63.80
24164;DHT22;12319;49.204;8.116;2022-10-17T12:27:37;27.30;63.30
24164;DHT22;12319;49.204;8.116;2022-10-17T12:35:32;27.50;62.10
24164;DHT22;12319;49.204;8.116;2022-10-17T12:38:01;27.60;62.80
24164;DHT22;12319;49.204;8.116;2022-10-17T12:43:02;27.60;61.10
24164;DHT22;12319;49.204;8.116;2022-10-17T12:51:19;27.60;60.50
24164;DHT22;12319;49.204;8.116;2022-10-17T12:53:48;27.70;60.70
24164;DHT22;12319;49.204;8.116;2022-10-17T12:56:45;27.70;61.50
24164;DHT22;12319;49.204;8.116;2022-10-17T12:59:19;27.70;60.10
24164;DHT22;12319;49.204;8.116;2022-10-17T13:01:48;27.70;60.70
24164;DHT22;12319;49.204;8.116;2022-10-17T13:04:16;27.60;59.40
24164;DHT22;12319;49.204;8.116;2022-10-17T13:06:48;27.60;61.00
24164;DHT22;12319;49.204;8.116;2022-10-17T13:09:23;27.60;59.90
24164;DHT22;12319;49.204;8.116;2022-10-17T13:11:49;27.60;59.80
24164;DHT22;12319;49.204;8.116;2022-10-17T13:14:18;27.50;60.90
24164;DHT22;12319;49.204;8.116;2022-10-17T13:16:53;27.40;60.60
24164;DHT22;12319;49.204;8.116;2022-10-17T13:19:23;27.40;60.00
24164;DHT22;12319;49.204;8.116;2022-10-17T13:24:20;27.30;61.20
24164;DHT22;12319;49.204;8.116;2022-10-17T13:26:46;27.20;61.20
24164;DHT22;12319;49.204;8.116;2022-10-17T13:29:14;27.10;61.50
24164;DHT22;12319;49.204;8.116;2022-10-17T13:31:42;26.90;60.90
24164;DHT22;12319;49.204;8.116;2022-10-17T13:34:17;26.80;61.30
24164;DHT22;12319;49.204;8.116;2022-10-17T13:36:46;26.50;61.40
24164;DHT22;12319;49.204;8.116;2022-10-17T13:39:17;26.40;61.80
24164;DHT22;12319;49.204;8.116;2022-10-17T13:41:44;26.20;61.70
24164;DHT22;12319;49.204;8.116;2022-10-17T13:44:13;26.00;62.40
24164;DHT22;12319;49.204;8.116;2022-10-17T13:46:39;25.90;62.50
24164;DHT22;12319;49.204;8.116;2022-10-17T13:49:36;25.80;62.90
24164;DHT22;12319;49.204;8.116;2022-10-17T13:52:05;25.70;62.80
24164;DHT22;12319;49.204;8.116;2022-10-17T13:54:36;25.60;63.30
24164;DHT22;12319;49.204;8.116;2022-10-17T13:57:03;25.50;63.20
24164;DHT22;12319;49.204;8.116;2022-10-17T13:59:39;25.50;63.50
24164;DHT22;12319;49.204;8.116;2022-10-17T14:02:22;25.30;63.30
24164;DHT22;12319;49.204;8.116;2022-10-17T14:07:40;25.20;63.70
24164;DHT22;12319;49.204;8.116;2022-10-17T14:10:28;25.10;64.10
24164;DHT22;12319;49.204;8.116;2022-10-17T14:12:55;25.00;63.90
24164;DHT22;12319;49.204;8.116;2022-10-17T14:15:24;25.00;64.50
24164;DHT22;12319;49.204;8.116;2022-10-17T14:18:04;25.00;64.80
24164;DHT22;12319;49.204;8.116;2022-10-17T14:20:32;24.90;65.10
24164;DHT22;12319;49.204;8.116;2022-10-17T14:22:59;24.80;65.20
24164;DHT22;12319;49.204;8.116;2022-10-17T14:25:30;24.80;65.50
24164;DHT22;12319;49.204;8.116;2022-10-17T14:30:46;24.70;66.10
24164;DHT22;12319;49.204;8.116;2022-10-17T14:33:35;24.60;66.30
24164;DHT22;12319;49.204;8.116;2022-10-17T14:36:01;24.60;66.50
24164;DHT22;12319;49.204;8.116;2022-10-17T14:38:28;24.60;66.70
24164;DHT22;12319;49.204;8.116;2022-10-17T14:40:58;24.50;66.80
24164;DHT22;12319;49.204;8.116;2022-10-17T14:43:27;24.50;67.00
24164;DHT22;12319;49.204;8.116;2022-10-17T14:45:56;24.50;67.20
24164;DHT22;12319;49.204;8.116;2022-10-17T14:48:23;24.40;67.10
24164;DHT22;12319;49.204;8.116;2022-10-17T14:51:06;24.40;67.20
24164;DHT22;12319;49.204;8.116;2022-10-17T14:53:33;24.40;67.20
24164;DHT22;12319;49.204;8.116;2022-10-17T14:56:00;24.40;67.20
24164;DHT22;12319;49.204;8.116;2022-10-17T14:58:28;24.30;67.40
24164;DHT22;12319;49.204;8.116;2022-10-17T15:00:56;24.30;67.40
24164;DHT22;12319;49.204;8.116;2022-10-17T15:03:22;24.30;67.60
24164;DHT22;12319;49.204;8.116;2022-10-17T15:05:49;24.30;67.90
24164;DHT22;12319;49.204;8.116;2022-10-17T15:08:17;24.20;68.00
24164;DHT22;12319;49.204;8.116;2022-10-17T15:10:44;24.20;67.90
24164;DHT22;12319;49.204;8.116;2022-10-17T15:13:11;24.20;68.00
24164;DHT22;12319;49.204;8.116;2022-10-17T15:15:38;24.10;68.10
24164;DHT22;12319;49.204;8.116;2022-10-17T15:18:04;24.10;68.20
24164;DHT22;12319;49.204;8.116;2022-10-17T15:20:31;24.00;68.20
24164;DHT22;12319;49.204;8.116;2022-10-17T15:22:58;24.00;68.40
24164;DHT22;12319;49.204;8.116;2022-10-17T15:25:25;24.00;68.40
24164;DHT22;12319;49.204;8.116;2022-10-17T15:27:51;23.90;68.60
24164;DHT22;12319;49.204;8.116;2022-10-17T15:30:21;23.90;68.80
24164;DHT22;12319;49.204;8.116;2022-10-17T15:32:47;23.80;68.90
24164;DHT22;12319;49.204;8.116;2022-10-17T15:35:14;23.80;69.00
24164;DHT22;12319;49.204;8.116;2022-10-17T15:37:39;23.70;69.00
24164;DHT22;12319;49.204;8.116;2022-10-17T15:40:05;23.80;69.30
24164;DHT22;12319;49.204;8.116;2022-10-17T15:42:31;23.60;69.30
24164;DHT22;12319;49.204;8.116;2022-10-17T15:44:57;23.60;69.60
24164;DHT22;12319;49.204;8.116;2022-10-17T15:47:26;23.50;69.70
24164;DHT22;12319;49.204;8.116;2022-10-17T15:49:53;23.50;70.00
24164;DHT22;12319;49.204;8.116;2022-10-17T15:52:19;23.40;70.10
24164;DHT22;12319;49.204;8.116;2022-10-17T15:54:45;23.40;70.40
24164;DHT22;12319;49.204;8.116;2022-10-17T15:57:20;23.30;70.50
24164;DHT22;12319;49.204;8.116;2022-10-17T15:59:47;23.20;70.80
24164;DHT22;12319;49.204;8.116;2022-10-17T16:02:14;23.00;70.70
24164;DHT22;12319;49.204;8.116;2022-10-17T16:04:40;23.10;71.00
24164;DHT22;12319;49.204;8.116;2022-10-17T16:07:05;23.00;71.30
24164;DHT22;12319;49.204;8.116;2022-10-17T16:09:32;23.00;71.60
24164;DHT22;12319;49.204;8.116;2022-10-17T16:11:59;22.80;71.70
24164;DHT22;12319;49.204;8.116;2022-10-17T16:14:26;22.80;72.00
24164;DHT22;12319;49.204;8.116;2022-10-17T16:16:51;22.70;72.30
24164;DHT22;12319;49.204;8.116;2022-10-17T16:19:17;22.70;72.60
24164;DHT22;12319;49.204;8.116;2022-10-17T16:21:42;22.60;72.90
24164;DHT22;12319;49.204;8.116;2022-10-17T16:24:11;22.50;73.30
24164;DHT22;12319;49.204;8.116;2022-10-17T16:26:38;22.30;73.50
24164;DHT22;12319;49.204;8.116;2022-10-17T16:29:03;22.30;73.80
24164;DHT22;12319;49.204;8.116;2022-10-17T16:31:32;22.20;74.20
24164;DHT22;12319;49.204;8.116;2022-10-17T16:33:59;22.10;74.60
24164;DHT22;12319;49.204;8.116;2022-10-17T16:36:25;22.00;75.00
24164;DHT22;12319;49.204;8.116;2022-10-17T16:38:51;21.90;75.20
24164;DHT22;12319;49.204;8.116;2022-10-17T16:41:30;21.80;75.50
24164;DHT22;12319;49.204;8.116;2022-10-17T16:43:57;21.70;76.30
24164;DHT22;12319;49.204;8.116;2022-10-17T16:46:25;21.60;76.10
24164;DHT22;12319;49.204;8.116;2022-10-17T16:48:51;21.60;76.50
24164;DHT22;12319;49.204;8.116;2022-10-17T16:51:18;21.50;76.80
24164;DHT22;12319;49.204;8.116;2022-10-17T16:53:49;21.50;77.10
24164;DHT22;12319;49.204;8.116;2022-10-17T16:56:22;21.30;77.60
24164;DHT22;12319;49.204;8.116;2022-10-17T16:58:48;21.30;77.80
24164;DHT22;12319;49.204;8.116;2022-10-17T17:01:16;21.30;78.10
24164;DHT22;12319;49.204;8.116;2022-10-17T17:03:43;21.20;78.30
24164;DHT22;12319;49.204;8.116;2022-10-17T17:06:20;21.20;78.60
24164;DHT22;12319;49.204;8.116;2022-10-17T17:08:46;21.10;79.50
24164;DHT22;12319;49.204;8.116;2022-10-17T17:11:15;21.10;79.20
24164;DHT22;12319;49.204;8.116;2022-10-17T17:13:41;21.30;80.00
24164;DHT22;12319;49.204;8.116;2022-10-17T17:16:09;21.00;79.80
24164;DHT22;12319;49.204;8.116;2022-10-17T17:18:35;21.00;80.50
24164;DHT22;12319;49.204;8.116;2022-10-17T17:21:03;21.00;80.50
24164;DHT22;12319;49.204;8.116;2022-10-17T17:23:29;20.90;81.00
24164;DHT22;12319;49.204;8.116;2022-10-17T17:25:58;20.80;81.10
24164;DHT22;12319;49.204;8.116;2022-10-17T17:28:24;20.80;81.50
24164;DHT22;12319;49.204;8.116;2022-10-17T17:30:50;20.70;81.80
24164;DHT22;12319;49.204;8.116;2022-10-17T17:33:16;20.70;82.10
24164;DHT22;12319;49.204;8.116;2022-10-17T17:35:42;20.70;82.50
24164;DHT22;12319;49.204;8.116;2022-10-17T17:38:07;20.60;82.90